createdAt,value
2022-12-14T00:02:12.883Z,99959.94
2022-12-14T00:04:41.234Z,99961.50
2022-12-14T00:07:09.947Z,99963.28
2022-12-14T00:09:38.627Z,99959.56
2022-12-14T00:12:07.621Z,99959.97
2022-12-14T00:14:37.719Z,99949.22
2022-12-14T00:17:06.390Z,99953.44
2022-12-14T00:19:34.753Z,99954.44
2022-12-14T00:22:03.429Z,99951.81
2022-12-14T00:24:32.027Z,99951.19
2022-12-14T00:27:00.735Z,99949.25
2022-12-14T00:29:29.707Z,99951.03
2022-12-14T00:31:59.719Z,99952.47
2022-12-14T00:34:28.053Z,99954.00
2022-12-14T00:36:56.681Z,99956.59
2022-12-14T00:39:25.336Z,99953.31
2022-12-14T00:41:53.897Z,99958.00
2022-12-14T00:44:22.589Z,99951.28
2022-12-14T00:46:50.848Z,99962.47
2022-12-14T00:49:20.865Z,99950.66
2022-12-14T00:51:49.449Z,99947.81
2022-12-14T00:54:18.468Z,99951.50
2022-12-14T00:56:47.102Z,99953.84
2022-12-14T00:59:15.693Z,99950.25
2022-12-14T01:01:44.176Z,99955.25
2022-12-14T01:04:19.679Z,99959.19
2022-12-14T01:06:51.247Z,99958.06
2022-12-14T01:09:21.427Z,99958.34
2022-12-14T01:11:50.157Z,99954.34
2022-12-14T01:14:19.945Z,99953.94
2022-12-14T01:16:48.525Z,99956.94
2022-12-14T01:19:17.370Z,99952.50
2022-12-14T01:21:46.174Z,99951.09
2022-12-14T01:24:16.208Z,99945.88
2022-12-14T01:26:44.877Z,99946.28
2022-12-14T01:29:13.652Z,99952.78
2022-12-14T01:31:42.049Z,99943.81
2022-12-14T01:34:11.416Z,99949.25
2022-12-14T01:36:40.560Z,99946.31
2022-12-14T01:39:13.934Z,99947.34
2022-12-14T01:41:45.822Z,99946.66
2022-12-14T01:44:52.875Z,99944.88
2022-12-14T01:47:25.360Z,99943.41
2022-12-14T01:49:58.055Z,99950.09
2022-12-14T01:52:30.286Z,99942.28
2022-12-14T01:55:02.264Z,99953.09
2022-12-14T01:57:35.495Z,99949.91
2022-12-14T02:00:07.569Z,99943.41
2022-12-14T02:02:37.501Z,99942.59
2022-12-14T02:05:08.225Z,99940.38
2022-12-14T02:07:36.555Z,99941.19
2022-12-14T02:10:07.881Z,99946.03
2022-12-14T02:12:41.218Z,99941.28
2022-12-14T02:15:10.624Z,99937.69
2022-12-14T02:17:39.784Z,99943.56
2022-12-14T02:20:09.275Z,99941.78
2022-12-14T02:23:05.253Z,99947.16
2022-12-14T02:26:15.972Z,99943.44
2022-12-14T02:29:07.736Z,99937.41
2022-12-14T02:31:44.429Z,99940.28
2022-12-14T02:34:19.552Z,99948.00
2022-12-14T02:36:58.072Z,99941.94
2022-12-14T02:39:35.094Z,99940.88
2022-12-14T02:42:09.349Z,99942.13
2022-12-14T02:44:41.596Z,99946.09
2022-12-14T02:47:16.393Z,99945.69
2022-12-14T02:49:54.057Z,99943.91
2022-12-14T02:52:28.740Z,99951.91
2022-12-14T02:55:02.019Z,99946.84
2022-12-14T02:57:34.145Z,99948.38
2022-12-14T03:00:06.009Z,99947.13
2022-12-14T03:02:37.863Z,99943.94
2022-12-14T03:05:11.159Z,99952.53
2022-12-14T03:07:43.019Z,99956.41
2022-12-14T03:10:19.167Z,99955.66
2022-12-14T03:12:52.683Z,99945.97
2022-12-14T03:15:23.333Z,99946.34
2022-12-14T03:17:56.198Z,99944.25
2022-12-14T03:20:26.870Z,99948.31
2022-12-14T03:22:59.453Z,99951.94
2022-12-14T03:25:32.487Z,99952.28
2022-12-14T03:28:04.943Z,99950.50
2022-12-14T03:30:58.947Z,99955.03
2022-12-14T03:33:26.605Z,99955.34
2022-12-14T03:35:59.860Z,99947.66
2022-12-14T03:38:33.742Z,99954.66
2022-12-14T03:41:12.839Z,99958.53
2022-12-14T03:43:49.773Z,99955.50
2022-12-14T03:46:26.317Z,99956.47
2022-12-14T03:48:59.314Z,99959.81
2022-12-14T03:51:33.774Z,99956.34
2022-12-14T03:54:06.832Z,99956.75
2022-12-14T03:56:39.830Z,99956.34
2022-12-14T03:59:11.674Z,99951.50
2022-12-14T04:01:43.937Z,99961.91
2022-12-14T04:04:17.050Z,99961.22
2022-12-14T04:06:49.135Z,99957.34
2022-12-14T04:09:25.809Z,99960.31
2022-12-14T04:12:15.110Z,99958.06
2022-12-14T04:15:04.240Z,99957.69
2022-12-14T04:17:52.789Z,99956.63
2022-12-14T04:20:25.728Z,99951.28
2022-12-14T04:22:58.753Z,99948.28
2022-12-14T04:25:49.246Z,99947.22
2022-12-14T04:28:33.957Z,99948.34
2022-12-14T04:31:05.739Z,99951.59
2022-12-14T04:33:48.372Z,99945.22
2022-12-14T04:36:22.666Z,99953.66
2022-12-14T04:38:55.932Z,99950.00
2022-12-14T04:41:27.780Z,99944.44
2022-12-14T04:43:57.620Z,99947.56
2022-12-14T04:46:28.386Z,99952.97
2022-12-14T04:49:00.363Z,99951.19
2022-12-14T04:51:33.550Z,99951.06
2022-12-14T04:54:06.880Z,99957.22
2022-12-14T04:56:38.326Z,99948.72
2022-12-14T04:59:07.484Z,99944.34
2022-12-14T05:01:43.994Z,99941.47
2022-12-14T05:04:25.785Z,99941.41
2022-12-14T05:07:07.307Z,99932.63
2022-12-14T05:09:40.611Z,99920.91
2022-12-14T05:12:12.125Z,99925.91
2022-12-14T05:14:47.474Z,99922.31
2022-12-14T05:17:16.859Z,99925.16
2022-12-14T05:19:49.694Z,99921.44
2022-12-14T05:22:20.821Z,99926.94
2022-12-14T05:24:49.972Z,99927.91
2022-12-14T05:27:18.788Z,99927.91
2022-12-14T05:29:47.548Z,99927.06
2022-12-14T05:32:16.361Z,99929.09
2022-12-14T05:34:44.702Z,99925.06
2022-12-14T05:37:18.203Z,99929.59
2022-12-14T05:39:49.053Z,99932.66
2022-12-14T05:42:18.128Z,99934.88
2022-12-14T05:44:48.019Z,99934.00
2022-12-14T05:47:16.978Z,99942.75
2022-12-14T05:49:45.314Z,99939.78
2022-12-14T05:52:18.116Z,99939.56
2022-12-14T05:54:48.379Z,99932.88
2022-12-14T05:57:17.168Z,99934.50
2022-12-14T05:59:45.906Z,99933.09
2022-12-14T06:02:14.800Z,99932.72
2022-12-14T06:04:43.356Z,99931.41
2022-12-14T06:07:12.882Z,99946.22
2022-12-14T06:09:41.630Z,99951.28
2022-12-14T06:12:11.859Z,99947.28
2022-12-14T06:14:40.682Z,99961.41
2022-12-14T06:17:09.475Z,99961.59
2022-12-14T06:19:37.907Z,99956.00
2022-12-14T06:22:06.663Z,99953.66
2022-12-14T06:24:36.119Z,99953.19
2022-12-14T06:27:05.103Z,99951.22
2022-12-14T06:29:35.518Z,99956.09
2022-12-14T06:32:04.518Z,99950.47
2022-12-14T06:34:38.533Z,99950.19
2022-12-14T06:37:08.076Z,99947.38
2022-12-14T06:39:38.192Z,99949.25
2022-12-14T06:42:07.388Z,99956.66
2022-12-14T06:44:37.694Z,99956.03
2022-12-14T06:47:06.495Z,99960.16
2022-12-14T06:49:35.022Z,99948.66
2022-12-14T06:52:03.691Z,99950.59
2022-12-14T06:54:32.843Z,99952.91
2022-12-14T06:57:02.353Z,99959.91
2022-12-14T06:59:31.060Z,99950.66
2022-12-14T07:02:01.186Z,99946.88
2022-12-14T07:04:29.422Z,99946.47
2022-12-14T07:06:58.255Z,99950.66
2022-12-14T07:09:26.933Z,99955.19
2022-12-14T07:11:55.755Z,99951.00
2022-12-14T07:14:24.484Z,99957.50
2022-12-14T07:16:53.247Z,99954.28
2022-12-14T07:19:23.546Z,99960.91
2022-12-14T07:21:52.214Z,99967.22
2022-12-14T07:24:20.943Z,99973.34
2022-12-14T07:26:49.802Z,99969.88
2022-12-14T07:29:18.509Z,99970.16
2022-12-14T07:31:49.612Z,99961.88
2022-12-14T07:34:18.601Z,99964.31
2022-12-14T07:36:50.715Z,99968.22
2022-12-14T07:39:19.686Z,99976.94
2022-12-14T07:41:50.714Z,99970.66
2022-12-14T07:44:22.866Z,99966.06
2022-12-14T07:46:51.317Z,99975.06
2022-12-14T07:49:20.328Z,99972.53
2022-12-14T07:51:50.663Z,99967.19
2022-12-14T07:54:19.471Z,99955.91
2022-12-14T07:56:48.187Z,99963.50
2022-12-14T07:59:20.267Z,99963.59
2022-12-14T08:01:48.402Z,99959.41
2022-12-14T08:04:18.673Z,99949.34
2022-12-14T08:06:48.165Z,99958.16
2022-12-14T08:09:20.239Z,99955.81
2022-12-14T08:11:49.266Z,99954.34
2022-12-14T08:14:19.695Z,99957.03
2022-12-14T08:16:48.911Z,99953.19
2022-12-14T08:19:18.635Z,99949.25
2022-12-14T08:21:47.547Z,99950.53
2022-12-14T08:24:18.619Z,99951.53
2022-12-14T08:26:49.769Z,99948.81
2022-12-14T08:29:19.185Z,99951.19
2022-12-14T08:31:47.792Z,99946.25
2022-12-14T08:34:22.157Z,99937.13
2022-12-14T08:36:51.238Z,99948.66
2022-12-14T08:39:22.054Z,99950.00
2022-12-14T08:41:51.189Z,99951.66
2022-12-14T08:44:19.927Z,99958.84
2022-12-14T08:46:48.390Z,99949.31
2022-12-14T08:49:17.426Z,99957.41
2022-12-14T08:51:46.330Z,99957.44
2022-12-14T08:54:15.010Z,99954.63
2022-12-14T08:56:45.095Z,99952.50
2022-12-14T08:59:36.590Z,99952.91
2022-12-14T09:02:04.353Z,99956.97
2022-12-14T09:04:33.412Z,99947.81
2022-12-14T09:07:02.399Z,99933.47
2022-12-14T09:09:36.729Z,99928.50
2022-12-14T09:12:09.694Z,99925.97
2022-12-14T09:14:38.657Z,99921.56
2022-12-14T09:17:07.640Z,99925.03
2022-12-14T09:19:36.162Z,99919.38
2022-12-14T09:22:05.478Z,99915.16
2022-12-14T09:24:34.319Z,99911.59
2022-12-14T09:27:03.775Z,99908.72
2022-12-14T09:29:34.132Z,99908.13
2022-12-14T09:32:02.607Z,99909.81
2022-12-14T09:34:31.034Z,99895.88
2022-12-14T09:37:04.607Z,99881.91
2022-12-14T09:39:33.542Z,99893.22
2022-12-14T09:42:12.765Z,99890.84
2022-12-14T09:44:52.994Z,99901.09
2022-12-14T09:47:25.265Z,99897.06
2022-12-14T09:49:56.943Z,99892.84
2022-12-14T09:52:40.506Z,99898.97
2022-12-14T09:55:18.836Z,99901.59
2022-12-14T09:57:49.598Z,99896.13
2022-12-14T10:00:20.817Z,99882.78
2022-12-14T10:03:06.543Z,99889.31
2022-12-14T10:05:58.636Z,99898.16
2022-12-14T10:08:31.037Z,99876.88
2022-12-14T10:11:07.559Z,99868.13
2022-12-14T10:13:45.993Z,99870.31
2022-12-14T10:16:23.497Z,99867.72
2022-12-14T10:19:07.223Z,99853.50
2022-12-14T10:21:44.627Z,99854.31
2022-12-14T10:24:18.271Z,99846.31
2022-12-14T10:26:50.218Z,99829.00
2022-12-14T10:29:26.698Z,99839.88
2022-12-14T10:32:04.391Z,99832.03
2022-12-14T10:34:34.807Z,99843.66
2022-12-14T10:37:07.000Z,99831.16
2022-12-14T10:39:44.226Z,99816.84
2022-12-14T10:42:23.927Z,99812.97
2022-12-14T10:47:52.729Z,99805.78
2022-12-14T10:50:25.827Z,99793.63
2022-12-14T10:52:55.535Z,99788.06
2022-12-14T10:55:28.197Z,99789.66
2022-12-14T10:57:56.933Z,99790.56
2022-12-14T11:00:25.685Z,99793.53
2022-12-14T11:02:57.792Z,99789.53
2022-12-14T11:05:36.661Z,99781.63
2022-12-14T11:08:07.407Z,99774.25
2022-12-14T11:10:37.476Z,99768.13
2022-12-14T11:13:08.405Z,99760.47
2022-12-14T11:15:39.265Z,99762.84
2022-12-14T11:18:29.403Z,99752.00
2022-12-14T11:20:59.250Z,99752.78
2022-12-14T11:23:29.523Z,99753.59
2022-12-14T11:26:00.097Z,99752.00
2022-12-14T11:28:36.654Z,99745.00
2022-12-14T11:31:08.735Z,99740.47
2022-12-14T11:33:40.442Z,99735.34
2022-12-14T11:36:10.247Z,99728.41
2022-12-14T11:38:39.146Z,99728.03
2022-12-14T11:41:11.911Z,99726.63
2022-12-14T11:43:40.521Z,99725.09
2022-12-14T11:46:09.406Z,99727.03
2022-12-14T11:48:48.928Z,99734.56
2022-12-14T11:51:17.651Z,99739.75
2022-12-14T11:54:02.687Z,99715.56
2022-12-14T11:56:31.421Z,99715.84
2022-12-14T11:59:00.210Z,99717.72
2022-12-14T12:01:28.649Z,99718.47
2022-12-14T12:04:00.681Z,99733.16
2022-12-14T12:06:30.668Z,99750.81
2022-12-14T12:09:00.695Z,99726.41
2022-12-14T12:11:34.048Z,99728.38
2022-12-14T12:14:05.799Z,99721.03
2022-12-14T12:16:35.728Z,99718.28
2022-12-14T12:19:11.708Z,99727.00
2022-12-14T12:21:42.620Z,99719.19
2022-12-14T12:24:13.275Z,99700.50
2022-12-14T12:26:43.870Z,99708.88
2022-12-14T12:29:23.088Z,99701.25
2022-12-14T12:31:56.481Z,99691.56
2022-12-14T12:34:29.395Z,99698.16
2022-12-14T12:37:25.376Z,99701.50
2022-12-14T12:39:53.688Z,99680.78
2022-12-14T12:42:26.929Z,99686.88
2022-12-14T12:44:59.660Z,99686.72
2022-12-14T12:47:40.074Z,99680.25
2022-12-14T12:50:18.644Z,99676.03
2022-12-14T12:53:00.930Z,99677.06
2022-12-14T12:55:34.216Z,99683.28
2022-12-14T12:58:05.031Z,99670.34
2022-12-14T13:00:35.241Z,99665.75
2022-12-14T13:03:11.033Z,99669.88
2022-12-14T13:05:47.638Z,99660.41
2022-12-14T13:08:23.528Z,99659.56
2022-12-14T13:13:44.842Z,99665.56
2022-12-14T13:16:18.632Z,99657.25
2022-12-14T13:19:18.645Z,99676.97
2022-12-14T13:21:49.963Z,99665.38
2022-12-14T13:24:20.441Z,99654.72
2022-12-14T13:26:58.273Z,99660.06
2022-12-14T13:29:36.039Z,99652.44
2022-12-14T13:32:10.944Z,99658.50
2022-12-14T13:34:45.992Z,99650.06
2022-12-14T13:37:37.932Z,99640.47
2022-12-14T13:40:40.673Z,99640.44
2022-12-14T13:43:19.466Z,99638.28
2022-12-14T13:45:49.889Z,99631.06
2022-12-14T13:48:24.576Z,99630.41
2022-12-14T13:51:01.890Z,99625.75
2022-12-14T13:53:36.457Z,99622.47
2022-12-14T13:56:06.254Z,99620.88
2022-12-14T13:58:39.125Z,99614.03
2022-12-14T14:01:08.732Z,99625.06
2022-12-14T14:03:58.789Z,99615.22
2022-12-14T14:06:35.858Z,99611.59
2022-12-14T14:09:41.701Z,99609.53
2022-12-14T14:12:46.635Z,99608.91
2022-12-14T14:15:47.335Z,99605.56
2022-12-14T14:18:30.376Z,99599.78
2022-12-14T14:21:38.851Z,99587.97
2022-12-14T14:24:23.484Z,99594.06
2022-12-14T14:27:11.486Z,99588.34
2022-12-14T14:29:45.857Z,99594.69
2022-12-14T14:32:38.509Z,99590.44
2022-12-14T14:35:09.312Z,99586.44
2022-12-14T14:37:39.160Z,99583.88
2022-12-14T14:40:44.301Z,99586.97
2022-12-14T14:43:24.862Z,99578.78
2022-12-14T14:45:55.716Z,99579.41
2022-12-14T14:48:33.767Z,99578.84
2022-12-14T14:51:06.118Z,99571.22
2022-12-14T14:53:35.841Z,99576.06
2022-12-14T14:56:36.500Z,99573.47
2022-12-14T14:59:41.960Z,99553.69
2022-12-14T15:02:26.876Z,99568.66
2022-12-14T15:04:57.484Z,99559.16
2022-12-14T15:07:29.677Z,99550.38
2022-12-14T15:10:03.174Z,99540.19
2022-12-14T15:12:35.514Z,99543.41
2022-12-14T15:15:07.164Z,99540.41
2022-12-14T15:17:36.051Z,99523.94
2022-12-14T15:20:22.849Z,99526.06
2022-12-14T15:22:52.148Z,99521.50
2022-12-14T15:25:25.029Z,99516.84
2022-12-14T15:27:54.611Z,99517.31
2022-12-14T15:30:25.832Z,99510.00
2022-12-14T15:32:56.703Z,99507.47
2022-12-14T15:35:29.459Z,99510.31
2022-12-14T15:38:00.359Z,99511.22
2022-12-14T15:40:30.454Z,99508.47
2022-12-14T15:43:00.796Z,99500.56
2022-12-14T15:45:31.591Z,99500.84
2022-12-14T15:48:14.289Z,99501.41
2022-12-14T15:50:45.448Z,99496.16
2022-12-14T15:53:15.194Z,99493.53
2022-12-14T15:55:44.238Z,99490.41
2022-12-14T15:58:20.704Z,99491.94
2022-12-14T16:00:52.849Z,99484.28
2022-12-14T16:03:28.888Z,99486.63
2022-12-14T16:06:00.519Z,99478.72
2022-12-14T16:08:30.514Z,99471.94
2022-12-14T16:11:04.570Z,99472.25
2022-12-14T16:13:35.415Z,99470.50
2022-12-14T16:16:08.917Z,99465.16
2022-12-14T16:18:41.060Z,99469.38
2022-12-14T16:21:27.111Z,99469.94
2022-12-14T16:23:56.533Z,99463.44
2022-12-14T16:26:27.726Z,99466.63
2022-12-14T16:29:09.247Z,99463.00
2022-12-14T16:31:39.290Z,99461.91
2022-12-14T16:34:09.612Z,99449.22
2022-12-14T16:36:39.764Z,99446.53
2022-12-14T16:39:09.439Z,99444.44
2022-12-14T16:41:39.639Z,99442.28
2022-12-14T16:44:11.456Z,99434.13
2022-12-14T16:46:40.495Z,99434.75
2022-12-14T16:49:24.306Z,99430.94
2022-12-14T16:52:09.126Z,99429.81
2022-12-14T16:54:39.792Z,99422.63
2022-12-14T16:57:19.328Z,99426.44
2022-12-14T16:59:49.126Z,99426.38
2022-12-14T17:02:28.520Z,99410.84
2022-12-14T17:04:58.413Z,99412.91
2022-12-14T17:07:30.658Z,99410.19
2022-12-14T17:09:59.542Z,99414.09
2022-12-14T17:12:28.435Z,99406.28
2022-12-14T17:14:57.319Z,99405.44
2022-12-14T17:17:30.179Z,99406.66
2022-12-14T17:19:58.539Z,99397.66
2022-12-14T17:22:31.495Z,99391.47
2022-12-14T17:25:02.626Z,99382.44
2022-12-14T17:27:31.673Z,99380.50
2022-12-14T17:30:00.465Z,99374.19
2022-12-14T17:32:31.867Z,99372.53
2022-12-14T17:35:01.014Z,99369.44
2022-12-14T17:37:36.161Z,99377.13
2022-12-14T17:40:08.084Z,99363.44
2022-12-14T17:42:39.344Z,99356.09
2022-12-14T17:45:11.452Z,99351.19
2022-12-14T17:47:40.358Z,99350.06
2022-12-14T17:50:11.298Z,99350.22
2022-12-14T17:52:41.185Z,99345.91
2022-12-14T17:55:17.309Z,99342.56
2022-12-14T17:57:46.218Z,99333.88
2022-12-14T18:00:34.827Z,99330.22
2022-12-14T18:03:04.996Z,99325.44
2022-12-14T18:05:34.213Z,99324.09
2022-12-14T18:08:04.579Z,99319.84
2022-12-14T18:10:33.013Z,99316.81
2022-12-14T18:13:02.519Z,99318.00
2022-12-14T18:15:34.214Z,99311.91
2022-12-14T18:18:03.053Z,99312.22
2022-12-14T18:20:32.101Z,99310.41
2022-12-14T18:23:00.854Z,99306.72
2022-12-14T18:25:33.927Z,99319.53
2022-12-14T18:28:04.924Z,99321.34
2022-12-14T18:30:40.574Z,99326.19
2022-12-14T18:33:15.416Z,99324.53
2022-12-14T18:35:45.529Z,99319.84
2022-12-14T18:38:14.064Z,99319.94
2022-12-14T18:40:44.648Z,99300.88
2022-12-14T18:43:20.200Z,99298.66
2022-12-14T18:45:49.041Z,99296.47
2022-12-14T18:48:55.049Z,99298.97
2022-12-14T18:52:04.075Z,99293.44
2022-12-14T18:55:17.875Z,99280.91
2022-12-14T18:58:29.720Z,99287.09
2022-12-14T19:01:38.885Z,99284.06
2022-12-14T19:04:49.051Z,99285.88
2022-12-14T19:07:58.126Z,99279.16
2022-12-14T19:11:10.933Z,99273.41
2022-12-14T19:14:21.313Z,99271.25
2022-12-14T19:17:31.058Z,99284.06
2022-12-14T19:20:40.097Z,99281.28
2022-12-14T19:23:49.071Z,99287.69
2022-12-14T19:26:57.988Z,99277.81
2022-12-14T19:30:11.711Z,99288.97
2022-12-14T19:33:21.300Z,99278.88
2022-12-14T19:36:30.288Z,99271.75
2022-12-14T19:39:39.301Z,99279.59
2022-12-14T19:42:48.448Z,99276.81
2022-12-14T19:45:58.805Z,99276.53
2022-12-14T19:49:09.600Z,99289.78
2022-12-14T19:52:18.663Z,99282.66
2022-12-14T19:55:27.764Z,99276.66
2022-12-14T19:58:36.939Z,99271.13
2022-12-14T20:01:48.303Z,99261.66
2022-12-14T20:04:57.569Z,99246.09
2022-12-14T20:08:07.047Z,99240.06
2022-12-14T20:11:16.105Z,99241.19
2022-12-14T20:14:25.279Z,99234.69
2022-12-14T20:17:35.723Z,99223.41
2022-12-14T20:20:45.169Z,99217.94
2022-12-14T20:23:59.110Z,99206.00
2022-12-14T20:27:08.072Z,99202.09
2022-12-14T20:30:17.035Z,99201.84
2022-12-14T20:33:30.572Z,99211.28
2022-12-14T20:36:39.899Z,99208.13
2022-12-14T20:39:48.854Z,99213.13
2022-12-14T20:42:57.873Z,99205.97
2022-12-14T20:46:07.110Z,99216.09
2022-12-14T20:49:21.614Z,99204.34
2022-12-14T20:52:30.863Z,99195.56
2022-12-14T20:55:39.936Z,99183.53
2022-12-14T20:58:49.222Z,99183.72
2022-12-14T21:01:58.256Z,99174.88
2022-12-14T21:05:09.623Z,99164.28
2022-12-14T21:08:18.550Z,99159.66
2022-12-14T21:11:45.185Z,99148.53
2022-12-14T21:14:55.006Z,99147.00
2022-12-14T21:18:04.053Z,99144.16
2022-12-14T21:21:14.420Z,99140.75
2022-12-14T21:25:01.069Z,99147.97
2022-12-14T21:27:53.423Z,99135.88
2022-12-14T21:31:04.259Z,99134.59
2022-12-14T21:34:15.769Z,99129.91
2022-12-14T21:37:26.101Z,99134.09
2022-12-14T21:40:52.987Z,99128.97
2022-12-14T21:44:01.993Z,99119.34
2022-12-14T21:47:13.284Z,99114.78
2022-12-14T21:50:22.284Z,99110.00
2022-12-14T21:53:35.413Z,99101.28
2022-12-14T21:57:02.486Z,99103.88
2022-12-14T22:00:12.275Z,99096.00
2022-12-14T22:03:21.119Z,99097.56
2022-12-14T22:06:30.111Z,99081.03
2022-12-14T22:09:40.363Z,99091.78
2022-12-14T22:12:48.993Z,99089.69
2022-12-14T22:15:57.823Z,99084.09
2022-12-14T22:19:06.837Z,99083.22
2022-12-14T22:22:16.505Z,99079.63
2022-12-14T22:25:26.945Z,99083.25
2022-12-14T22:28:35.842Z,99075.28
2022-12-14T22:31:45.062Z,99079.78
2022-12-14T22:34:54.230Z,99068.91
2022-12-14T22:38:03.255Z,99073.56
2022-12-14T22:41:15.566Z,99062.44
2022-12-14T22:44:24.502Z,99065.69
2022-12-14T22:47:33.453Z,99065.56
2022-12-14T22:50:42.436Z,99062.03
2022-12-14T22:53:51.369Z,99060.38
2022-12-14T22:57:03.849Z,99050.84
2022-12-14T23:00:16.526Z,99050.50
2022-12-14T23:03:26.852Z,99047.31
2022-12-14T23:06:36.055Z,99035.75
2022-12-14T23:10:02.621Z,99027.53
2022-12-14T23:13:31.225Z,99025.06
2022-12-14T23:16:57.672Z,99020.75
2022-12-14T23:20:24.756Z,99016.94
2022-12-14T23:23:51.229Z,99021.94
2022-12-14T23:27:17.895Z,99013.41
2022-12-14T23:30:45.839Z,99015.78
2022-12-14T23:34:12.152Z,99008.41
2022-12-14T23:37:38.141Z,99008.41
2022-12-14T23:41:04.511Z,99000.44
2022-12-14T23:44:30.688Z,98994.59
2022-12-14T23:47:58.213Z,99003.09
2022-12-14T23:51:24.940Z,98999.69
2022-12-14T23:54:51.523Z,99001.56
2022-12-14T23:58:17.644Z,98993.25
